sensor_id;sensor_type;location;lat;lon;timestamp;P1;durP1;ratioP1;P2;durP2;ratioP2
23682;SDS011;24897;53.514;10.482;2022-10-16T00:00:57;38.43;;;34.23;;
23682;SDS011;24897;53.514;10.482;2022-10-16T00:03:42;38.57;;;34.40;;
23682;SDS011;24897;53.514;10.482;2022-10-16T00:06:27;40.27;;;34.33;;
23682;SDS011;24897;53.514;10.482;2022-10-16T00:09:13;38.10;;;32.67;;
23682;SDS011;24897;53.514;10.482;2022-10-16T00:11:57;40.63;;;34.07;;
23682;SDS011;24897;53.514;10.482;2022-10-16T00:14:41;37.47;;;33.37;;
23682;SDS011;24897;53.514;10.482;2022-10-16T00:17:27;42.10;;;34.27;;
23682;SDS011;24897;53.514;10.482;2022-10-16T00:20:12;39.23;;;35.03;;
23682;SDS011;24897;53.514;10.482;2022-10-16T00:22:56;39.43;;;34.83;;
23682;SDS011;24897;53.514;10.482;2022-10-16T00:25:41;38.53;;;33.73;;
23682;SDS011;24897;53.514;10.482;2022-10-16T00:28:26;37.60;;;33.50;;
23682;SDS011;24897;53.514;10.482;2022-10-16T00:31:11;38.63;;;32.27;;
23682;SDS011;24897;53.514;10.482;2022-10-16T00:33:56;38.07;;;32.40;;
23682;SDS011;24897;53.514;10.482;2022-10-16T00:36:40;36.57;;;32.57;;
23682;SDS011;24897;53.514;10.482;2022-10-16T00:39:25;38.53;;;34.30;;
23682;SDS011;24897;53.514;10.482;2022-10-16T00:42:13;37.67;;;33.67;;
23682;SDS011;24897;53.514;10.482;2022-10-16T00:44:59;38.00;;;33.87;;
23682;SDS011;24897;53.514;10.482;2022-10-16T00:47:44;37.40;;;33.40;;
23682;SDS011;24897;53.514;10.482;2022-10-16T00:50:33;39.27;;;33.67;;
23682;SDS011;24897;53.514;10.482;2022-10-16T00:53:18;35.83;;;31.93;;
23682;SDS011;24897;53.514;10.482;2022-10-16T00:56:03;36.77;;;32.87;;
23682;SDS011;24897;53.514;10.482;2022-10-16T00:58:47;36.83;;;32.83;;
23682;SDS011;24897;53.514;10.482;2022-10-16T01:01:32;38.30;;;34.17;;
23682;SDS011;24897;53.514;10.482;2022-10-16T01:04:17;38.10;;;33.90;;
23682;SDS011;24897;53.514;10.482;2022-10-16T01:07:12;40.53;;;34.67;;
23682;SDS011;24897;53.514;10.482;2022-10-16T01:18:37;39.93;;;34.30;;
23682;SDS011;24897;53.514;10.482;2022-10-16T01:21:31;39.03;;;34.73;;
23682;SDS011;24897;53.514;10.482;2022-10-16T01:24:40;39.77;;;34.27;;
23682;SDS011;24897;53.514;10.482;2022-10-16T01:27:31;37.00;;;32.93;;
23682;SDS011;24897;53.514;10.482;2022-10-16T01:30:23;37.93;;;33.80;;
23682;SDS011;24897;53.514;10.482;2022-10-16T01:33:21;40.63;;;34.30;;
23682;SDS011;24897;53.514;10.482;2022-10-16T01:36:13;37.87;;;33.23;;
23682;SDS011;24897;53.514;10.482;2022-10-16T01:39:08;38.87;;;34.20;;
23682;SDS011;24897;53.514;10.482;2022-10-16T01:41:57;35.47;;;31.67;;
23682;SDS011;24897;53.514;10.482;2022-10-16T01:44:48;38.70;;;34.27;;
23682;SDS011;24897;53.514;10.482;2022-10-16T01:47:34;38.50;;;31.60;;
23682;SDS011;24897;53.514;10.482;2022-10-16T01:50:19;35.40;;;31.23;;
23682;SDS011;24897;53.514;10.482;2022-10-16T01:53:05;36.63;;;31.27;;
23682;SDS011;24897;53.514;10.482;2022-10-16T01:55:54;37.57;;;33.53;;
23682;SDS011;24897;53.514;10.482;2022-10-16T01:58:42;36.13;;;32.33;;
23682;SDS011;24897;53.514;10.482;2022-10-16T02:01:37;35.93;;;30.93;;
23682;SDS011;24897;53.514;10.482;2022-10-16T02:04:34;34.07;;;30.07;;
23682;SDS011;24897;53.514;10.482;2022-10-16T02:07:26;34.00;;;30.40;;
23682;SDS011;24897;53.514;10.482;2022-10-16T02:10:11;34.70;;;29.80;;
23682;SDS011;24897;53.514;10.482;2022-10-16T02:13:06;32.87;;;28.70;;
23682;SDS011;24897;53.514;10.482;2022-10-16T02:15:57;32.40;;;29.00;;
23682;SDS011;24897;53.514;10.482;2022-10-16T02:18:41;32.93;;;29.03;;
23682;SDS011;24897;53.514;10.482;2022-10-16T02:21:32;32.63;;;29.23;;
23682;SDS011;24897;53.514;10.482;2022-10-16T02:27:27;33.77;;;30.37;;
23682;SDS011;24897;53.514;10.482;2022-10-16T02:30:28;31.83;;;28.53;;
23682;SDS011;24897;53.514;10.482;2022-10-16T02:33:14;32.93;;;29.60;;
23682;SDS011;24897;53.514;10.482;2022-10-16T02:36:00;32.73;;;29.40;;
23682;SDS011;24897;53.514;10.482;2022-10-16T02:38:44;29.90;;;26.67;;
23682;SDS011;24897;53.514;10.482;2022-10-16T02:41:30;32.33;;;29.07;;
23682;SDS011;24897;53.514;10.482;2022-10-16T02:44:15;34.87;;;31.43;;
23682;SDS011;24897;53.514;10.482;2022-10-16T02:46:59;31.00;;;27.93;;
23682;SDS011;24897;53.514;10.482;2022-10-16T02:49:43;32.20;;;28.97;;
23682;SDS011;24897;53.514;10.482;2022-10-16T02:52:27;31.77;;;28.57;;
23682;SDS011;24897;53.514;10.482;2022-10-16T02:55:14;32.17;;;28.97;;
23682;SDS011;24897;53.514;10.482;2022-10-16T02:57:59;32.53;;;29.43;;
23682;SDS011;24897;53.514;10.482;2022-10-16T03:00:43;30.80;;;27.80;;
23682;SDS011;24897;53.514;10.482;2022-10-16T03:03:27;30.83;;;27.93;;
23682;SDS011;24897;53.514;10.482;2022-10-16T03:06:12;33.17;;;29.87;;
23682;SDS011;24897;53.514;10.482;2022-10-16T03:08:56;32.43;;;29.47;;
23682;SDS011;24897;53.514;10.482;2022-10-16T03:11:40;33.97;;;30.70;;
23682;SDS011;24897;53.514;10.482;2022-10-16T03:14:24;32.03;;;29.03;;
23682;SDS011;24897;53.514;10.482;2022-10-16T03:17:08;33.50;;;30.30;;
23682;SDS011;24897;53.514;10.482;2022-10-16T03:19:52;32.53;;;29.23;;
23682;SDS011;24897;53.514;10.482;2022-10-16T03:22:36;32.00;;;28.90;;
23682;SDS011;24897;53.514;10.482;2022-10-16T03:25:20;32.93;;;29.63;;
23682;SDS011;24897;53.514;10.482;2022-10-16T03:28:05;30.77;;;27.77;;
23682;SDS011;24897;53.514;10.482;2022-10-16T03:30:49;31.30;;;28.17;;
23682;SDS011;24897;53.514;10.482;2022-10-16T03:33:34;33.80;;;30.40;;
23682;SDS011;24897;53.514;10.482;2022-10-16T03:36:18;30.00;;;27.07;;
23682;SDS011;24897;53.514;10.482;2022-10-16T03:39:03;33.70;;;30.30;;
23682;SDS011;24897;53.514;10.482;2022-10-16T03:41:47;31.33;;;28.17;;
23682;SDS011;24897;53.514;10.482;2022-10-16T03:44:31;31.03;;;27.73;;
23682;SDS011;24897;53.514;10.482;2022-10-16T03:47:15;31.07;;;28.07;;
23682;SDS011;24897;53.514;10.482;2022-10-16T03:50:04;32.00;;;28.67;;
23682;SDS011;24897;53.514;10.482;2022-10-16T03:52:49;31.47;;;28.43;;
23682;SDS011;24897;53.514;10.482;2022-10-16T03:55:34;31.37;;;28.13;;
23682;SDS011;24897;53.514;10.482;2022-10-16T03:58:19;31.83;;;28.63;;
23682;SDS011;24897;53.514;10.482;2022-10-16T04:01:03;30.70;;;27.50;;
23682;SDS011;24897;53.514;10.482;2022-10-16T04:03:48;30.57;;;27.37;;
23682;SDS011;24897;53.514;10.482;2022-10-16T04:06:32;31.30;;;28.10;;
23682;SDS011;24897;53.514;10.482;2022-10-16T04:09:16;31.80;;;28.70;;
23682;SDS011;24897;53.514;10.482;2022-10-16T04:12:00;34.17;;;30.23;;
23682;SDS011;24897;53.514;10.482;2022-10-16T04:14:44;30.50;;;27.40;;
23682;SDS011;24897;53.514;10.482;2022-10-16T04:17:28;30.23;;;26.93;;
23682;SDS011;24897;53.514;10.482;2022-10-16T04:20:12;31.87;;;28.13;;
23682;SDS011;24897;53.514;10.482;2022-10-16T04:22:57;32.67;;;29.10;;
23682;SDS011;24897;53.514;10.482;2022-10-16T04:25:42;32.33;;;27.73;;
23682;SDS011;24897;53.514;10.482;2022-10-16T04:28:26;31.60;;;28.27;;
23682;SDS011;24897;53.514;10.482;2022-10-16T04:31:10;28.73;;;25.73;;
23682;SDS011;24897;53.514;10.482;2022-10-16T04:33:55;32.03;;;28.73;;
23682;SDS011;24897;53.514;10.482;2022-10-16T04:36:39;32.33;;;28.93;;
23682;SDS011;24897;53.514;10.482;2022-10-16T04:39:24;31.17;;;27.97;;
23682;SDS011;24897;53.514;10.482;2022-10-16T04:42:08;31.57;;;28.37;;
23682;SDS011;24897;53.514;10.482;2022-10-16T04:44:52;30.30;;;27.10;;
23682;SDS011;24897;53.514;10.482;2022-10-16T04:47:37;32.00;;;28.60;;
23682;SDS011;24897;53.514;10.482;2022-10-16T04:50:21;31.13;;;27.77;;
23682;SDS011;24897;53.514;10.482;2022-10-16T04:53:06;33.07;;;29.47;;
23682;SDS011;24897;53.514;10.482;2022-10-16T04:55:51;33.37;;;30.03;;
23682;SDS011;24897;53.514;10.482;2022-10-16T04:58:35;31.73;;;28.40;;
23682;SDS011;24897;53.514;10.482;2022-10-16T05:01:19;32.90;;;29.60;;
23682;SDS011;24897;53.514;10.482;2022-10-16T05:04:03;33.90;;;29.43;;
23682;SDS011;24897;53.514;10.482;2022-10-16T05:06:48;32.50;;;27.90;;
23682;SDS011;24897;53.514;10.482;2022-10-16T05:09:32;31.87;;;28.47;;
23682;SDS011;24897;53.514;10.482;2022-10-16T05:12:17;31.53;;;28.13;;
23682;SDS011;24897;53.514;10.482;2022-10-16T05:15:01;30.77;;;27.57;;
23682;SDS011;24897;53.514;10.482;2022-10-16T05:17:46;31.93;;;28.57;;
23682;SDS011;24897;53.514;10.482;2022-10-16T05:20:30;32.00;;;27.90;;
23682;SDS011;24897;53.514;10.482;2022-10-16T05:23:15;30.83;;;27.60;;
23682;SDS011;24897;53.514;10.482;2022-10-16T05:26:00;31.77;;;28.47;;
23682;SDS011;24897;53.514;10.482;2022-10-16T05:28:44;32.50;;;28.40;;
23682;SDS011;24897;53.514;10.482;2022-10-16T05:31:28;34.13;;;29.30;;
23682;SDS011;24897;53.514;10.482;2022-10-16T05:34:13;33.00;;;28.60;;
23682;SDS011;24897;53.514;10.482;2022-10-16T05:36:57;32.50;;;29.10;;
23682;SDS011;24897;53.514;10.482;2022-10-16T05:39:42;33.93;;;28.67;;
23682;SDS011;24897;53.514;10.482;2022-10-16T05:42:26;35.70;;;29.20;;
23682;SDS011;24897;53.514;10.482;2022-10-16T05:45:11;31.63;;;28.27;;
23682;SDS011;24897;53.514;10.482;2022-10-16T05:47:56;32.23;;;27.70;;
23682;SDS011;24897;53.514;10.482;2022-10-16T05:50:40;32.83;;;29.07;;
23682;SDS011;24897;53.514;10.482;2022-10-16T05:53:24;32.63;;;29.07;;
23682;SDS011;24897;53.514;10.482;2022-10-16T05:56:09;32.87;;;28.63;;
23682;SDS011;24897;53.514;10.482;2022-10-16T05:58:55;33.03;;;29.57;;
23682;SDS011;24897;53.514;10.482;2022-10-16T06:01:39;31.00;;;27.67;;
23682;SDS011;24897;53.514;10.482;2022-10-16T06:04:24;33.73;;;28.00;;
23682;SDS011;24897;53.514;10.482;2022-10-16T06:07:07;32.57;;;28.30;;
23682;SDS011;24897;53.514;10.482;2022-10-16T06:09:52;33.53;;;29.20;;
23682;SDS011;24897;53.514;10.482;2022-10-16T06:12:37;33.70;;;28.90;;
23682;SDS011;24897;53.514;10.482;2022-10-16T06:15:22;31.77;;;28.30;;
23682;SDS011;24897;53.514;10.482;2022-10-16T06:18:06;35.80;;;30.47;;
23682;SDS011;24897;53.514;10.482;2022-10-16T06:20:50;34.97;;;30.17;;
23682;SDS011;24897;53.514;10.482;2022-10-16T06:23:34;36.33;;;29.83;;
23682;SDS011;24897;53.514;10.482;2022-10-16T06:26:19;35.07;;;30.17;;
23682;SDS011;24897;53.514;10.482;2022-10-16T06:29:05;33.40;;;29.93;;
23682;SDS011;24897;53.514;10.482;2022-10-16T06:31:49;34.40;;;30.70;;
23682;SDS011;24897;53.514;10.482;2022-10-16T06:34:33;29.97;;;26.77;;
23682;SDS011;24897;53.514;10.482;2022-10-16T06:37:17;32.37;;;29.07;;
23682;SDS011;24897;53.514;10.482;2022-10-16T06:40:02;34.77;;;29.97;;
23682;SDS011;24897;53.514;10.482;2022-10-16T06:42:47;35.80;;;29.30;;
23682;SDS011;24897;53.514;10.482;2022-10-16T06:45:31;34.33;;;30.63;;
23682;SDS011;24897;53.514;10.482;2022-10-16T06:48:15;32.80;;;28.87;;
23682;SDS011;24897;53.514;10.482;2022-10-16T06:51:00;32.77;;;29.27;;
23682;SDS011;24897;53.514;10.482;2022-10-16T06:53:52;35.57;;;29.70;;
23682;SDS011;24897;53.514;10.482;2022-10-16T06:56:37;35.37;;;30.33;;
23682;SDS011;24897;53.514;10.482;2022-10-16T06:59:24;33.53;;;29.93;;
23682;SDS011;24897;53.514;10.482;2022-10-16T07:02:08;35.77;;;30.63;;
23682;SDS011;24897;53.514;10.482;2022-10-16T07:04:53;34.40;;;30.33;;
23682;SDS011;24897;53.514;10.482;2022-10-16T07:07:37;32.97;;;29.37;;
23682;SDS011;24897;53.514;10.482;2022-10-16T07:10:21;34.50;;;30.47;;
23682;SDS011;24897;53.514;10.482;2022-10-16T07:13:07;33.03;;;29.43;;
23682;SDS011;24897;53.514;10.482;2022-10-16T07:15:51;33.40;;;29.73;;
23682;SDS011;24897;53.514;10.482;2022-10-16T07:18:35;33.47;;;29.97;;
23682;SDS011;24897;53.514;10.482;2022-10-16T07:21:22;33.60;;;30.10;;
23682;SDS011;24897;53.514;10.482;2022-10-16T07:24:06;37.13;;;30.83;;
23682;SDS011;24897;53.514;10.482;2022-10-16T07:26:54;33.30;;;29.70;;
23682;SDS011;24897;53.514;10.482;2022-10-16T07:29:38;35.77;;;30.80;;
23682;SDS011;24897;53.514;10.482;2022-10-16T07:32:23;35.70;;;31.07;;
23682;SDS011;24897;53.514;10.482;2022-10-16T07:35:09;33.20;;;29.53;;
23682;SDS011;24897;53.514;10.482;2022-10-16T07:37:53;34.57;;;30.77;;
23682;SDS011;24897;53.514;10.482;2022-10-16T07:40:37;32.27;;;28.97;;
23682;SDS011;24897;53.514;10.482;2022-10-16T07:43:21;29.40;;;26.30;;
23682;SDS011;24897;53.514;10.482;2022-10-16T07:46:05;31.37;;;27.40;;
23682;SDS011;24897;53.514;10.482;2022-10-16T07:48:49;30.97;;;27.50;;
23682;SDS011;24897;53.514;10.482;2022-10-16T07:51:34;31.17;;;28.00;;
23682;SDS011;24897;53.514;10.482;2022-10-16T07:54:18;31.23;;;28.00;;
23682;SDS011;24897;53.514;10.482;2022-10-16T07:57:02;30.63;;;27.60;;
23682;SDS011;24897;53.514;10.482;2022-10-16T07:59:46;29.93;;;27.03;;
23682;SDS011;24897;53.514;10.482;2022-10-16T08:02:30;29.80;;;27.10;;
23682;SDS011;24897;53.514;10.482;2022-10-16T08:05:15;30.07;;;27.20;;
23682;SDS011;24897;53.514;10.482;2022-10-16T08:08:00;30.90;;;28.10;;
23682;SDS011;24897;53.514;10.482;2022-10-16T08:10:46;29.80;;;26.67;;
23682;SDS011;24897;53.514;10.482;2022-10-16T08:13:31;29.50;;;26.90;;
23682;SDS011;24897;53.514;10.482;2022-10-16T08:16:15;29.13;;;26.53;;
23682;SDS011;24897;53.514;10.482;2022-10-16T08:19:01;29.90;;;27.33;;
23682;SDS011;24897;53.514;10.482;2022-10-16T08:21:47;30.43;;;27.40;;
23682;SDS011;24897;53.514;10.482;2022-10-16T08:24:31;29.70;;;27.10;;
23682;SDS011;24897;53.514;10.482;2022-10-16T08:27:15;29.97;;;27.33;;
23682;SDS011;24897;53.514;10.482;2022-10-16T08:29:59;29.53;;;26.83;;
23682;SDS011;24897;53.514;10.482;2022-10-16T08:32:44;39.23;;;35.13;;
23682;SDS011;24897;53.514;10.482;2022-10-16T08:35:28;29.53;;;26.87;;
23682;SDS011;24897;53.514;10.482;2022-10-16T08:38:12;28.93;;;26.33;;
23682;SDS011;24897;53.514;10.482;2022-10-16T08:47:13;29.93;;;27.23;;
23682;SDS011;24897;53.514;10.482;2022-10-16T08:50:10;28.67;;;26.20;;
23682;SDS011;24897;53.514;10.482;2022-10-16T08:52:57;26.43;;;24.07;;
23682;SDS011;24897;53.514;10.482;2022-10-16T08:55:52;28.87;;;26.47;;
23682;SDS011;24897;53.514;10.482;2022-10-16T08:58:37;26.27;;;24.00;;
23682;SDS011;24897;53.514;10.482;2022-10-16T09:01:22;23.50;;;21.60;;
23682;SDS011;24897;53.514;10.482;2022-10-16T09:07:19;22.17;;;20.20;;
23682;SDS011;24897;53.514;10.482;2022-10-16T09:14:22;22.30;;;20.50;;
23682;SDS011;24897;53.514;10.482;2022-10-16T09:17:27;20.73;;;18.83;;
23682;SDS011;24897;53.514;10.482;2022-10-16T09:20:32;20.03;;;18.23;;
23682;SDS011;24897;53.514;10.482;2022-10-16T09:23:37;20.70;;;18.90;;
23682;SDS011;24897;53.514;10.482;2022-10-16T09:26:21;19.60;;;17.90;;
23682;SDS011;24897;53.514;10.482;2022-10-16T09:29:05;19.17;;;17.47;;
23682;SDS011;24897;53.514;10.482;2022-10-16T09:31:50;19.17;;;17.57;;
23682;SDS011;24897;53.514;10.482;2022-10-16T09:34:36;18.67;;;16.97;;
23682;SDS011;24897;53.514;10.482;2022-10-16T09:37:25;18.47;;;16.77;;
23682;SDS011;24897;53.514;10.482;2022-10-16T09:40:23;18.23;;;16.50;;
23682;SDS011;24897;53.514;10.482;2022-10-16T09:43:25;19.17;;;17.40;;
23682;SDS011;24897;53.514;10.482;2022-10-16T09:46:21;17.80;;;16.20;;
23682;SDS011;24897;53.514;10.482;2022-10-16T09:49:21;18.20;;;16.43;;
23682;SDS011;24897;53.514;10.482;2022-10-16T09:52:14;19.03;;;17.30;;
23682;SDS011;24897;53.514;10.482;2022-10-16T09:55:00;17.67;;;16.03;;
23682;SDS011;24897;53.514;10.482;2022-10-16T09:57:52;18.40;;;16.50;;
23682;SDS011;24897;53.514;10.482;2022-10-16T10:00:37;16.93;;;15.53;;
23682;SDS011;24897;53.514;10.482;2022-10-16T10:06:22;18.03;;;16.43;;
23682;SDS011;24897;53.514;10.482;2022-10-16T10:09:19;18.53;;;16.93;;
23682;SDS011;24897;53.514;10.482;2022-10-16T10:12:17;27.77;;;24.57;;
23682;SDS011;24897;53.514;10.482;2022-10-16T10:15:10;15.77;;;14.50;;
23682;SDS011;24897;53.514;10.482;2022-10-16T10:17:57;16.90;;;15.40;;
23682;SDS011;24897;53.514;10.482;2022-10-16T10:20:41;16.47;;;14.97;;
23682;SDS011;24897;53.514;10.482;2022-10-16T10:23:26;16.47;;;15.17;;
23682;SDS011;24897;53.514;10.482;2022-10-16T10:26:16;16.90;;;15.40;;
23682;SDS011;24897;53.514;10.482;2022-10-16T10:35:02;16.57;;;15.27;;
23682;SDS011;24897;53.514;10.482;2022-10-16T10:40:51;16.00;;;14.70;;
23682;SDS011;24897;53.514;10.482;2022-10-16T10:57:06;15.97;;;14.57;;
23682;SDS011;24897;53.514;10.482;2022-10-16T11:06:43;17.60;;;16.00;;
23682;SDS011;24897;53.514;10.482;2022-10-16T11:09:39;17.67;;;16.00;;
23682;SDS011;24897;53.514;10.482;2022-10-16T11:12:27;17.50;;;16.00;;
23682;SDS011;24897;53.514;10.482;2022-10-16T11:15:18;18.33;;;16.63;;
23682;SDS011;24897;53.514;10.482;2022-10-16T11:18:24;17.73;;;16.23;;
23682;SDS011;24897;53.514;10.482;2022-10-16T11:21:17;17.80;;;16.20;;
23682;SDS011;24897;53.514;10.482;2022-10-16T11:24:12;18.17;;;16.47;;
23682;SDS011;24897;53.514;10.482;2022-10-16T11:27:06;18.57;;;17.00;;
23682;SDS011;24897;53.514;10.482;2022-10-16T11:29:54;17.27;;;15.67;;
23682;SDS011;24897;53.514;10.482;2022-10-16T11:47:45;16.27;;;14.87;;
23682;SDS011;24897;53.514;10.482;2022-10-16T11:53:45;16.73;;;15.23;;
23682;SDS011;24897;53.514;10.482;2022-10-16T11:56:30;17.50;;;15.97;;
23682;SDS011;24897;53.514;10.482;2022-10-16T12:02:16;16.97;;;15.60;;
23682;SDS011;24897;53.514;10.482;2022-10-16T12:05:50;16.93;;;15.63;;
23682;SDS011;24897;53.514;10.482;2022-10-16T12:08:29;17.30;;;15.77;;
23682;SDS011;24897;53.514;10.482;2022-10-16T12:11:33;17.00;;;15.60;;
23682;SDS011;24897;53.514;10.482;2022-10-16T12:17:34;16.60;;;15.30;;
23682;SDS011;24897;53.514;10.482;2022-10-16T12:20:21;18.43;;;16.70;;
23682;SDS011;24897;53.514;10.482;2022-10-16T12:23:16;17.33;;;15.63;;
23682;SDS011;24897;53.514;10.482;2022-10-16T12:26:06;16.37;;;15.17;;
23682;SDS011;24897;53.514;10.482;2022-10-16T12:28:50;17.50;;;16.00;;
23682;SDS011;24897;53.514;10.482;2022-10-16T12:31:45;17.87;;;16.03;;
23682;SDS011;24897;53.514;10.482;2022-10-16T12:37:35;17.40;;;15.80;;
23682;SDS011;24897;53.514;10.482;2022-10-16T12:43:27;17.30;;;15.80;;
23682;SDS011;24897;53.514;10.482;2022-10-16T12:51:55;16.13;;;14.73;;
23682;SDS011;24897;53.514;10.482;2022-10-16T12:54:40;16.87;;;15.33;;
23682;SDS011;24897;53.514;10.482;2022-10-16T13:03:43;17.20;;;15.47;;
23682;SDS011;24897;53.514;10.482;2022-10-16T13:10:02;15.53;;;14.23;;
23682;SDS011;24897;53.514;10.482;2022-10-16T13:16:11;15.90;;;14.50;;
23682;SDS011;24897;53.514;10.482;2022-10-16T13:19:23;15.60;;;14.40;;
23682;SDS011;24897;53.514;10.482;2022-10-16T13:28:28;15.93;;;14.60;;
23682;SDS011;24897;53.514;10.482;2022-10-16T13:31:19;19.07;;;14.90;;
23682;SDS011;24897;53.514;10.482;2022-10-16T13:34:11;15.80;;;14.40;;
23682;SDS011;24897;53.514;10.482;2022-10-16T13:36:58;16.80;;;15.20;;
23682;SDS011;24897;53.514;10.482;2022-10-16T13:39:43;16.50;;;15.00;;
23682;SDS011;24897;53.514;10.482;2022-10-16T13:42:28;16.50;;;15.03;;
23682;SDS011;24897;53.514;10.482;2022-10-16T13:45:25;16.63;;;14.97;;
23682;SDS011;24897;53.514;10.482;2022-10-16T13:48:10;16.20;;;14.80;;
23682;SDS011;24897;53.514;10.482;2022-10-16T13:51:00;15.77;;;14.47;;
23682;SDS011;24897;53.514;10.482;2022-10-16T13:53:50;16.07;;;14.67;;
23682;SDS011;24897;53.514;10.482;2022-10-16T13:56:34;15.90;;;14.60;;
23682;SDS011;24897;53.514;10.482;2022-10-16T13:59:22;16.40;;;14.80;;
23682;SDS011;24897;53.514;10.482;2022-10-16T14:02:20;17.73;;;16.03;;
23682;SDS011;24897;53.514;10.482;2022-10-16T14:05:09;16.03;;;14.60;;
23682;SDS011;24897;53.514;10.482;2022-10-16T14:07:57;16.73;;;15.13;;
23682;SDS011;24897;53.514;10.482;2022-10-16T14:10:42;16.90;;;15.40;;
23682;SDS011;24897;53.514;10.482;2022-10-16T14:16:22;17.07;;;15.47;;
23682;SDS011;24897;53.514;10.482;2022-10-16T14:19:22;17.27;;;15.53;;
23682;SDS011;24897;53.514;10.482;2022-10-16T14:22:20;16.57;;;15.13;;
23682;SDS011;24897;53.514;10.482;2022-10-16T14:31:00;16.37;;;14.97;;
23682;SDS011;24897;53.514;10.482;2022-10-16T14:33:45;16.70;;;15.00;;
23682;SDS011;24897;53.514;10.482;2022-10-16T14:36:29;16.50;;;15.00;;
23682;SDS011;24897;53.514;10.482;2022-10-16T14:39:17;16.20;;;14.80;;
23682;SDS011;24897;53.514;10.482;2022-10-16T14:42:11;16.73;;;15.10;;
23682;SDS011;24897;53.514;10.482;2022-10-16T14:44:59;16.40;;;14.70;;
23682;SDS011;24897;53.514;10.482;2022-10-16T14:47:48;17.30;;;15.50;;
23682;SDS011;24897;53.514;10.482;2022-10-16T14:50:37;16.77;;;15.20;;
23682;SDS011;24897;53.514;10.482;2022-10-16T14:53:21;17.63;;;15.90;;
23682;SDS011;24897;53.514;10.482;2022-10-16T14:56:08;17.10;;;15.47;;
23682;SDS011;24897;53.514;10.482;2022-10-16T14:59:03;17.10;;;15.47;;
23682;SDS011;24897;53.514;10.482;2022-10-16T15:01:48;16.73;;;15.23;;
23682;SDS011;24897;53.514;10.482;2022-10-16T15:04:32;16.80;;;15.30;;
23682;SDS011;24897;53.514;10.482;2022-10-16T15:07:16;16.63;;;15.07;;
23682;SDS011;24897;53.514;10.482;2022-10-16T15:10:00;17.03;;;15.43;;
23682;SDS011;24897;53.514;10.482;2022-10-16T15:12:45;18.03;;;15.70;;
23682;SDS011;24897;53.514;10.482;2022-10-16T15:15:37;17.43;;;15.73;;
23682;SDS011;24897;53.514;10.482;2022-10-16T15:18:23;17.30;;;15.57;;
23682;SDS011;24897;53.514;10.482;2022-10-16T15:21:09;17.40;;;15.80;;
23682;SDS011;24897;53.514;10.482;2022-10-16T15:24:05;17.17;;;15.57;;
23682;SDS011;24897;53.514;10.482;2022-10-16T15:26:54;17.37;;;15.83;;
23682;SDS011;24897;53.514;10.482;2022-10-16T15:29:38;16.67;;;15.10;;
23682;SDS011;24897;53.514;10.482;2022-10-16T15:32:22;16.63;;;15.00;;
23682;SDS011;24897;53.514;10.482;2022-10-16T15:35:09;17.93;;;16.20;;
23682;SDS011;24897;53.514;10.482;2022-10-16T15:37:54;17.30;;;15.70;;
23682;SDS011;24897;53.514;10.482;2022-10-16T15:40:39;17.20;;;15.70;;
23682;SDS011;24897;53.514;10.482;2022-10-16T15:43:24;16.67;;;15.13;;
23682;SDS011;24897;53.514;10.482;2022-10-16T15:46:09;16.63;;;15.23;;
23682;SDS011;24897;53.514;10.482;2022-10-16T15:48:58;17.37;;;15.83;;
23682;SDS011;24897;53.514;10.482;2022-10-16T15:51:42;17.20;;;15.80;;
23682;SDS011;24897;53.514;10.482;2022-10-16T15:54:26;17.30;;;15.77;;
23682;SDS011;24897;53.514;10.482;2022-10-16T15:57:10;18.67;;;16.97;;
23682;SDS011;24897;53.514;10.482;2022-10-16T15:59:54;18.13;;;16.53;;
23682;SDS011;24897;53.514;10.482;2022-10-16T16:02:39;18.37;;;16.50;;
23682;SDS011;24897;53.514;10.482;2022-10-16T16:05:24;19.77;;;17.87;;
23682;SDS011;24897;53.514;10.482;2022-10-16T16:08:09;25.03;;;22.37;;
23682;SDS011;24897;53.514;10.482;2022-10-16T16:10:59;28.97;;;26.30;;
23682;SDS011;24897;53.514;10.482;2022-10-16T16:13:48;22.07;;;19.87;;
23682;SDS011;24897;53.514;10.482;2022-10-16T16:16:32;18.97;;;17.27;;
23682;SDS011;24897;53.514;10.482;2022-10-16T16:19:20;19.73;;;18.03;;
23682;SDS011;24897;53.514;10.482;2022-10-16T16:22:05;20.37;;;18.30;;
23682;SDS011;24897;53.514;10.482;2022-10-16T16:24:49;21.07;;;19.27;;
23682;SDS011;24897;53.514;10.482;2022-10-16T16:27:34;24.37;;;21.80;;
23682;SDS011;24897;53.514;10.482;2022-10-16T16:30:18;27.23;;;24.53;;
23682;SDS011;24897;53.514;10.482;2022-10-16T16:33:04;27.17;;;24.37;;
23682;SDS011;24897;53.514;10.482;2022-10-16T16:35:48;32.60;;;29.23;;
23682;SDS011;24897;53.514;10.482;2022-10-16T16:38:32;32.70;;;29.40;;
23682;SDS011;24897;53.514;10.482;2022-10-16T16:41:18;37.47;;;33.57;;
23682;SDS011;24897;53.514;10.482;2022-10-16T16:44:04;41.07;;;35.00;;
23682;SDS011;24897;53.514;10.482;2022-10-16T16:46:51;32.37;;;26.93;;
23682;SDS011;24897;53.514;10.482;2022-10-16T16:49:36;31.80;;;28.40;;
23682;SDS011;24897;53.514;10.482;2022-10-16T16:52:20;31.03;;;27.73;;
23682;SDS011;24897;53.514;10.482;2022-10-16T16:55:06;38.20;;;33.87;;
23682;SDS011;24897;53.514;10.482;2022-10-16T16:57:50;45.00;;;38.60;;
23682;SDS011;24897;53.514;10.482;2022-10-16T17:00:34;27.93;;;24.97;;
23682;SDS011;24897;53.514;10.482;2022-10-16T17:03:18;26.40;;;23.60;;
23682;SDS011;24897;53.514;10.482;2022-10-16T17:06:04;25.93;;;23.50;;
23682;SDS011;24897;53.514;10.482;2022-10-16T17:08:50;25.93;;;23.43;;
23682;SDS011;24897;53.514;10.482;2022-10-16T17:11:34;28.20;;;25.30;;
23682;SDS011;24897;53.514;10.482;2022-10-16T17:14:19;29.07;;;26.33;;
23682;SDS011;24897;53.514;10.482;2022-10-16T17:17:03;29.10;;;26.40;;
23682;SDS011;24897;53.514;10.482;2022-10-16T17:19:50;32.53;;;29.43;;
23682;SDS011;24897;53.514;10.482;2022-10-16T17:22:35;31.90;;;27.63;;
23682;SDS011;24897;53.514;10.482;2022-10-16T17:25:19;29.10;;;26.17;;
23682;SDS011;24897;53.514;10.482;2022-10-16T17:28:03;28.07;;;25.37;;
23682;SDS011;24897;53.514;10.482;2022-10-16T17:30:48;30.07;;;27.13;;
23682;SDS011;24897;53.514;10.482;2022-10-16T17:33:32;29.70;;;27.00;;
23682;SDS011;24897;53.514;10.482;2022-10-16T17:36:17;32.27;;;29.37;;
23682;SDS011;24897;53.514;10.482;2022-10-16T17:39:06;33.40;;;30.27;;
23682;SDS011;24897;53.514;10.482;2022-10-16T17:41:51;33.90;;;30.60;;
23682;SDS011;24897;53.514;10.482;2022-10-16T17:44:36;34.07;;;30.87;;
23682;SDS011;24897;53.514;10.482;2022-10-16T17:47:20;34.60;;;31.40;;
23682;SDS011;24897;53.514;10.482;2022-10-16T17:50:05;35.00;;;31.50;;
23682;SDS011;24897;53.514;10.482;2022-10-16T17:52:50;35.87;;;32.27;;
23682;SDS011;24897;53.514;10.482;2022-10-16T17:55:38;33.83;;;30.43;;
23682;SDS011;24897;53.514;10.482;2022-10-16T17:58:24;33.13;;;29.93;;
23682;SDS011;24897;53.514;10.482;2022-10-16T18:01:12;31.40;;;28.47;;
23682;SDS011;24897;53.514;10.482;2022-10-16T18:04:01;33.37;;;30.27;;